createdAt,value
2023-04-25T00:02:06.904Z,88.96
2023-04-25T00:06:27.855Z,89.02
2023-04-25T00:10:45.486Z,89.03
2023-04-25T00:15:03.541Z,89.05
2023-04-25T00:19:21.995Z,89.10
2023-04-25T00:23:40.194Z,89.15
2023-04-25T00:27:57.749Z,88.99
2023-04-25T00:32:15.666Z,88.92
2023-04-25T00:36:33.448Z,88.98
2023-04-25T00:40:51.532Z,88.97
2023-04-25T00:45:13.816Z,88.98
2023-04-25T00:49:31.412Z,88.91
2023-04-25T00:53:51.545Z,88.88
2023-04-25T00:58:09.694Z,88.97
2023-04-25T01:02:28.387Z,89.00
2023-04-25T01:06:47.197Z,88.90
2023-04-25T01:11:05.681Z,88.90
2023-04-25T01:15:23.420Z,88.82
2023-04-25T01:19:41.065Z,88.77
2023-04-25T01:23:59.008Z,88.87
2023-04-25T01:28:17.248Z,88.83
2023-04-25T01:32:39.690Z,88.73
2023-04-25T01:36:57.307Z,88.74
2023-04-25T01:41:15.990Z,88.64
2023-04-25T01:45:34.317Z,88.58
2023-04-25T01:49:52.156Z,88.84
2023-04-25T01:54:11.250Z,88.90
2023-04-25T01:58:29.286Z,88.83
2023-04-25T02:02:46.964Z,89.03
2023-04-25T02:07:06.620Z,89.20
2023-04-25T02:11:24.246Z,89.13
2023-04-25T02:15:42.577Z,89.15
2023-04-25T02:20:00.782Z,88.69
2023-04-25T02:24:18.826Z,88.65
2023-04-25T02:28:36.322Z,88.70
2023-04-25T02:32:54.179Z,88.84
2023-04-25T02:37:12.213Z,88.80
2023-04-25T02:41:30.065Z,89.03
2023-04-25T02:45:47.731Z,88.60
2023-04-25T02:50:06.122Z,88.57
2023-04-25T02:54:23.807Z,88.91
2023-04-25T02:58:41.522Z,89.12
2023-04-25T03:02:59.336Z,89.05
2023-04-25T03:07:16.918Z,88.58
2023-04-25T03:11:34.556Z,88.60
2023-04-25T03:15:52.338Z,88.38
2023-04-25T03:20:11.653Z,88.62
2023-04-25T03:24:29.599Z,88.57
2023-04-25T03:28:47.165Z,88.13
2023-04-25T03:33:05.086Z,87.84
2023-04-25T03:37:22.648Z,88.10
2023-04-25T03:41:40.386Z,88.30
2023-04-25T03:45:58.386Z,88.59
2023-04-25T03:50:16.001Z,88.57
2023-04-25T03:54:33.698Z,88.54
2023-04-25T03:58:51.317Z,88.62
2023-04-25T04:03:09.180Z,88.69
2023-04-25T04:07:26.848Z,88.50
2023-04-25T04:11:44.876Z,88.14
2023-04-25T04:16:02.745Z,87.69
2023-04-25T04:20:20.588Z,87.67
2023-04-25T04:24:38.159Z,87.37
2023-04-25T04:28:56.328Z,87.30
2023-04-25T04:33:15.054Z,86.88
2023-04-25T04:37:32.601Z,86.97
2023-04-25T04:41:50.327Z,86.49
2023-04-25T04:46:07.923Z,86.43
2023-04-25T04:50:25.588Z,86.78
2023-04-25T04:54:43.156Z,86.99
2023-04-25T04:59:01.178Z,86.91
2023-04-25T05:03:18.759Z,86.76
2023-04-25T05:07:37.768Z,86.59
2023-04-25T05:11:55.292Z,86.69
2023-04-25T05:16:13.996Z,86.57
2023-04-25T05:20:31.703Z,86.27
2023-04-25T05:24:49.934Z,86.41
2023-04-25T05:29:07.393Z,85.37
2023-04-25T05:33:25.064Z,84.89
2023-04-25T05:37:42.578Z,85.16
2023-04-25T05:42:00.297Z,83.81
2023-04-25T05:46:18.385Z,84.15
2023-04-25T05:50:36.478Z,84.01
2023-04-25T05:54:53.887Z,82.91
2023-04-25T05:59:11.767Z,83.30
2023-04-25T06:03:29.841Z,81.95
2023-04-25T06:07:47.575Z,81.12
2023-04-25T06:12:05.478Z,80.46
2023-04-25T06:16:22.741Z,79.25
2023-04-25T06:20:40.910Z,80.59
2023-04-25T06:25:00.327Z,79.36
2023-04-25T06:29:17.864Z,79.62
2023-04-25T06:33:35.624Z,81.21
2023-04-25T06:37:53.199Z,79.95
2023-04-25T06:42:11.333Z,79.10
2023-04-25T06:46:29.015Z,80.31
2023-04-25T06:50:46.842Z,80.09
2023-04-25T06:55:06.118Z,80.66
2023-04-25T06:59:23.946Z,80.18
2023-04-25T07:03:41.721Z,78.95
2023-04-25T07:07:59.707Z,78.56
2023-04-25T07:12:17.191Z,77.03
2023-04-25T07:16:34.941Z,78.38
2023-04-25T07:20:52.601Z,79.33
2023-04-25T07:25:11.036Z,79.60
2023-04-25T07:29:31.167Z,78.20
2023-04-25T07:33:48.939Z,78.42
2023-04-25T07:38:07.881Z,75.88
2023-04-25T07:42:25.854Z,75.09
2023-04-25T07:46:46.197Z,74.96
2023-04-25T07:51:06.021Z,74.89
2023-04-25T07:55:26.056Z,74.85
2023-04-25T07:59:43.983Z,74.96
2023-04-25T08:04:01.498Z,73.19
2023-04-25T08:08:19.540Z,71.49
2023-04-25T08:12:37.108Z,71.70
2023-04-25T08:16:55.035Z,72.06
2023-04-25T08:21:13.481Z,71.97
2023-04-25T08:25:31.397Z,73.28
2023-04-25T08:29:49.058Z,74.96
2023-04-25T08:34:07.226Z,70.25
2023-04-25T08:38:24.785Z,71.75
2023-04-25T08:42:46.784Z,70.42
2023-04-25T08:47:06.345Z,67.77
2023-04-25T08:51:29.402Z,65.63
2023-04-25T08:55:47.976Z,65.81
2023-04-25T09:00:09.567Z,65.97
2023-04-25T09:04:27.296Z,65.32
2023-04-25T09:08:46.931Z,67.51
2023-04-25T09:13:13.737Z,67.22
2023-04-25T09:17:31.704Z,66.26
2023-04-25T09:21:54.736Z,65.44
2023-04-25T09:26:19.717Z,66.45
2023-04-25T09:30:38.140Z,63.80
2023-04-25T09:34:57.994Z,64.70
2023-04-25T09:39:16.635Z,63.69
2023-04-25T09:43:34.525Z,62.01
2023-04-25T09:47:57.543Z,61.12
2023-04-25T09:52:18.897Z,62.22
2023-04-25T09:56:38.852Z,59.60
2023-04-25T10:01:03.094Z,63.38
2023-04-25T10:05:21.297Z,59.76
2023-04-25T10:09:42.122Z,60.06
2023-04-25T10:14:01.999Z,60.10
2023-04-25T10:18:21.164Z,57.62
2023-04-25T10:22:45.460Z,56.07
2023-04-25T10:27:03.920Z,54.06
2023-04-25T10:31:21.710Z,55.25
2023-04-25T10:35:39.735Z,53.91
2023-04-25T10:39:57.929Z,51.44
2023-04-25T10:44:16.527Z,51.97
2023-04-25T10:48:36.081Z,47.90
2023-04-25T10:52:54.993Z,49.26
2023-04-25T10:57:38.393Z,50.03
2023-04-25T11:01:57.478Z,52.19
2023-04-25T11:06:30.875Z,51.06
2023-04-25T11:10:50.313Z,50.41
2023-04-25T11:15:10.004Z,51.12
2023-04-25T11:19:29.370Z,51.59
2023-04-25T11:23:47.585Z,52.63
2023-04-25T11:28:05.653Z,48.61
2023-04-25T11:32:24.202Z,50.51
2023-04-25T11:36:42.555Z,50.12
2023-04-25T11:41:00.187Z,48.51
2023-04-25T11:45:20.007Z,50.19
2023-04-25T11:49:37.410Z,48.95
2023-04-25T11:53:55.113Z,50.76
2023-04-25T11:58:14.756Z,49.26
2023-04-25T12:02:33.100Z,50.86
2023-04-25T12:06:55.342Z,47.49
2023-04-25T12:11:23.235Z,47.12
2023-04-25T12:15:42.220Z,49.77
2023-04-25T12:20:00.146Z,49.23
2023-04-25T12:24:24.654Z,50.55
2023-04-25T12:28:48.560Z,51.79
2023-04-25T12:33:06.296Z,52.51
2023-04-25T12:37:24.110Z,53.62
2023-04-25T12:41:41.684Z,54.42
2023-04-25T12:45:59.424Z,53.41
2023-04-25T12:50:17.364Z,52.60
2023-04-25T12:54:35.592Z,54.16
2023-04-25T12:58:53.726Z,55.82
2023-04-25T13:03:13.158Z,55.32
2023-04-25T13:07:31.732Z,55.26
2023-04-25T13:11:50.259Z,54.81
2023-04-25T13:16:09.594Z,54.07
2023-04-25T13:20:27.399Z,55.39
2023-04-25T13:24:45.124Z,55.20
2023-04-25T13:29:04.850Z,56.50
2023-04-25T13:33:22.867Z,55.67
2023-04-25T13:37:41.584Z,55.18
2023-04-25T13:41:59.319Z,55.53
2023-04-25T13:46:35.313Z,56.01
2023-04-25T13:50:54.585Z,54.17
2023-04-25T13:55:13.012Z,54.74
2023-04-25T13:59:30.663Z,55.32
2023-04-25T14:03:48.391Z,55.17
2023-04-25T14:08:08.387Z,54.78
2023-04-25T14:12:26.657Z,54.54
2023-04-25T14:16:44.393Z,54.05
2023-04-25T14:21:01.931Z,54.68
2023-04-25T14:25:19.643Z,53.98
2023-04-25T14:29:39.517Z,53.51
2023-04-25T14:33:59.279Z,53.35
2023-04-25T14:38:17.379Z,54.98
2023-04-25T14:42:35.767Z,55.91
2023-04-25T14:46:53.387Z,55.60
2023-04-25T14:51:11.668Z,56.02
2023-04-25T14:55:29.766Z,55.86
2023-04-25T14:59:47.205Z,58.00
2023-04-25T15:04:05.553Z,58.34
2023-04-25T15:08:23.366Z,58.46
2023-04-25T15:12:41.740Z,58.68
2023-04-25T15:16:59.268Z,57.71
2023-04-25T15:21:16.987Z,55.49
2023-04-25T15:25:34.662Z,53.88
2023-04-25T15:29:52.514Z,52.77
2023-04-25T15:34:10.372Z,48.96
2023-04-25T15:38:27.996Z,46.22
2023-04-25T15:42:48.288Z,42.57
2023-04-25T15:47:05.978Z,35.28
2023-04-25T15:51:23.796Z,33.30
2023-04-25T15:55:41.432Z,34.93
2023-04-25T15:59:59.133Z,42.07
2023-04-25T16:04:17.305Z,48.06
2023-04-25T16:08:36.239Z,49.91
2023-04-25T16:12:53.908Z,52.41
2023-04-25T16:17:11.662Z,54.30
2023-04-25T16:21:29.023Z,54.44
2023-04-25T16:25:46.863Z,53.87
2023-04-25T16:30:10.399Z,54.81
2023-04-25T16:34:28.195Z,55.84
2023-04-25T16:38:45.957Z,56.39
2023-04-25T16:43:03.807Z,56.38
2023-04-25T16:47:21.480Z,55.66
2023-04-25T16:51:39.292Z,55.03
2023-04-25T16:55:56.877Z,53.53
2023-04-25T17:00:15.692Z,53.52
2023-04-25T17:04:33.369Z,54.73
2023-04-25T17:08:51.814Z,58.01
2023-04-25T17:13:09.676Z,58.96
2023-04-25T17:17:27.998Z,59.41
2023-04-25T17:21:45.893Z,59.55
2023-04-25T17:26:03.649Z,60.52
2023-04-25T17:30:21.475Z,60.12
2023-04-25T17:34:40.405Z,61.45
2023-04-25T17:38:58.318Z,61.73
2023-04-25T17:43:16.546Z,61.79
2023-04-25T17:47:34.611Z,62.56
2023-04-25T17:51:52.228Z,62.82
2023-04-25T17:56:25.344Z,63.58
2023-04-25T18:00:44.048Z,65.59
2023-04-25T18:05:01.856Z,67.43
2023-04-25T18:09:23.577Z,70.04
2023-04-25T18:13:41.869Z,71.44
2023-04-25T18:17:59.467Z,72.11
2023-04-25T18:22:18.459Z,68.99
2023-04-25T18:26:36.548Z,68.18
2023-04-25T18:30:54.574Z,67.15
2023-04-25T18:35:13.234Z,66.67
2023-04-25T18:39:30.845Z,67.50
2023-04-25T18:43:49.678Z,68.06
2023-04-25T18:48:08.155Z,68.76
2023-04-25T18:52:26.482Z,69.79
2023-04-25T18:56:44.331Z,70.37
2023-04-25T19:01:02.098Z,70.97
2023-04-25T19:05:19.879Z,71.64
2023-04-25T19:09:37.592Z,72.42
2023-04-25T19:13:57.109Z,72.60
2023-04-25T19:18:15.098Z,73.37
2023-04-25T19:22:36.961Z,73.71
2023-04-25T19:26:54.525Z,74.05
2023-04-25T19:31:16.202Z,74.54
2023-04-25T19:35:34.327Z,75.25
2023-04-25T19:39:52.127Z,75.69
2023-04-25T19:44:10.097Z,76.66
2023-04-25T19:48:30.346Z,78.15
2023-04-25T19:52:47.449Z,78.49
2023-04-25T19:57:05.127Z,79.26
2023-04-25T20:01:22.828Z,80.08
2023-04-25T20:05:40.598Z,80.45
2023-04-25T20:09:58.198Z,80.47
2023-04-25T20:14:15.907Z,80.63
2023-04-25T20:18:33.481Z,80.96
2023-04-25T20:22:52.346Z,80.95
2023-04-25T20:27:09.954Z,80.73
2023-04-25T20:31:28.054Z,80.22
2023-04-25T20:35:46.483Z,78.88
2023-04-25T20:40:08.470Z,78.23
2023-04-25T20:44:25.986Z,78.08
2023-04-25T20:48:44.009Z,76.57
2023-04-25T20:53:01.648Z,75.62
2023-04-25T20:57:19.694Z,74.43
2023-04-25T21:01:37.452Z,73.96
2023-04-25T21:05:55.199Z,73.60
2023-04-25T21:10:14.240Z,73.16
2023-04-25T21:14:31.847Z,72.92
2023-04-25T21:18:49.755Z,73.03
2023-04-25T21:23:07.394Z,73.31
2023-04-25T21:27:26.153Z,73.84
2023-04-25T21:31:43.862Z,74.32
2023-04-25T21:36:01.587Z,74.30
2023-04-25T21:40:19.891Z,74.36
2023-04-25T21:44:37.788Z,74.87
2023-04-25T21:48:56.041Z,74.93
2023-04-25T21:53:13.751Z,75.19
2023-04-25T21:57:31.680Z,74.94
2023-04-25T22:01:49.310Z,75.29
2023-04-25T22:06:07.428Z,75.20
2023-04-25T22:10:25.419Z,75.51
2023-04-25T22:14:45.023Z,75.74
2023-04-25T22:19:02.638Z,75.91
2023-04-25T22:23:20.399Z,75.78
2023-04-25T22:27:41.026Z,75.74
2023-04-25T22:31:59.003Z,75.35
2023-04-25T22:36:18.052Z,75.40
2023-04-25T22:40:36.108Z,75.23
2023-04-25T22:44:54.144Z,75.37
2023-04-25T22:49:12.358Z,75.11
2023-04-25T22:53:31.442Z,74.78
2023-04-25T22:57:49.221Z,74.07
2023-04-25T23:02:07.658Z,73.09
2023-04-25T23:06:25.705Z,73.10
2023-04-25T23:10:44.207Z,72.88
2023-04-25T23:15:03.963Z,73.24
2023-04-25T23:19:22.093Z,73.03
2023-04-25T23:23:40.223Z,71.69
2023-04-25T23:27:57.619Z,71.38
2023-04-25T23:32:15.474Z,70.92
2023-04-25T23:36:33.223Z,71.42
2023-04-25T23:40:51.827Z,71.20
2023-04-25T23:45:10.013Z,70.20
2023-04-25T23:49:29.038Z,69.46
2023-04-25T23:53:46.906Z,67.86
2023-04-25T23:58:04.492Z,68.26
